Time;durP1;ratioP1;P1;durP2;ratioP2;P2;SDS_P1;SDS_P2;PMS_P1;PMS_P2;Temp;Humidity;BMP_temperature;BMP_pressure;BME280_temperature;BME280_humidity;BME280_pressure;Samples;Min_cycle;Max_cycle;Signal;HPM_P1;HPM_P2
2022/12/29 00:00:50;;;;;;;5.45;2.50;;;;;;;5.94;100.00;100154.75;5034662;28;20025;-79
2022/12/29 00:03:17;;;;;;;5.50;3.15;;;;;;;5.96;100.00;100152.22;5018196;28;20470;-79
2022/12/29 00:05:42;;;;;;;9.13;2.70;;;;;;;5.99;100.00;100149.22;5052212;28;20433;-78
2022/12/29 00:08:08;;;;;;;4.85;2.70;;;;;;;6.03;100.00;100146.28;5052468;28;20024;-79
2022/12/29 00:10:34;;;;;;;4.00;2.42;;;;;;;6.03;100.00;100141.41;5052816;28;20044;-79
2022/12/29 00:15:43;;;;;;;5.70;2.78;;;;;;;6.06;100.00;100131.94;5052621;28;20127;-79
2022/12/29 00:18:21;;;;;;;3.38;2.08;;;;;;;6.05;100.00;100127.53;5052636;28;20104;-80
2022/12/29 00:37:13;;;;;;;3.15;1.98;;;;;;;6.04;100.00;100111.00;5062161;28;20048;-79
2022/12/29 00:45:09;;;;;;;5.65;2.60;;;;;;;6.05;100.00;100087.03;5061095;28;20104;-78
2022/12/29 00:47:36;;;;;;;5.38;2.67;;;;;;;6.01;100.00;100083.56;5060071;28;20108;-80
2022/12/29 00:50:01;;;;;;;5.50;3.35;;;;;;;5.99;100.00;100089.69;5026072;28;20090;-78
2022/12/29 00:52:26;;;;;;;5.28;2.95;;;;;;;5.96;100.00;100073.59;5060137;28;20025;-78
2022/12/29 00:54:52;;;;;;;5.72;2.78;;;;;;;5.95;100.00;100072.03;5061061;28;20440;-79
2022/12/29 00:57:18;;;;;;;3.58;2.55;;;;;;;5.92;100.00;100072.19;5041248;28;20031;-79
2022/12/29 00:59:45;;;;;;;5.30;2.42;;;;;;;5.93;100.00;100071.72;5039080;28;20033;-78
2022/12/29 01:02:10;;;;;;;6.50;2.83;;;;;;;5.94;100.00;100078.19;5023188;28;20033;-79
2022/12/29 01:04:41;;;;;;;7.47;2.83;;;;;;;5.93;100.00;100065.25;5057577;28;20021;-80
2022/12/29 01:07:08;;;;;;;4.20;2.60;;;;;;;5.93;100.00;100063.22;5063051;28;20037;-78
2022/12/29 01:12:40;;;;;;;4.68;2.35;;;;;;;5.81;100.00;100038.56;5069476;28;20028;-78
2022/12/29 01:15:07;;;;;;;4.65;2.38;;;;;;;5.99;100.00;100061.31;5069275;28;20024;-79
2022/12/29 01:17:33;;;;;;;3.78;2.20;;;;;;;5.95;100.00;100057.84;5033131;28;20442;-80
2022/12/29 01:19:58;;;;;;;4.68;2.58;;;;;;;5.96;100.00;100062.25;5040072;28;20050;-78
2022/12/29 01:22:45;;;;;;;2.10;1.90;;;;;;;5.99;100.00;100055.66;5059452;28;20425;-80
2022/12/29 01:25:21;;;;;;;7.68;2.47;;;;;;;5.98;100.00;100056.13;5059461;28;20374;-80
2022/12/29 01:27:48;;;;;;;6.85;2.58;;;;;;;6.01;100.00;100055.97;5046276;28;20093;-79
2022/12/29 01:30:13;;;;;;;4.68;2.90;;;;;;;6.04;100.00;100055.03;5063502;28;20038;-79
2022/12/29 01:32:41;;;;;;;5.63;2.30;;;;;;;6.03;100.00;100042.13;5045174;28;20021;-79
2022/12/29 01:35:07;;;;;;;9.77;2.33;;;;;;;6.09;100.00;100048.00;5064480;28;20055;-79
2022/12/29 01:37:33;;;;;;;6.90;2.83;;;;;;;6.08;100.00;100046.41;5063815;28;20031;-81
2022/12/29 01:39:59;;;;;;;3.67;2.38;;;;;;;6.08;100.00;100052.06;5068310;28;20437;-80
2022/12/29 01:42:28;;;;;;;3.80;1.95;;;;;;;6.12;100.00;100050.66;5068189;28;20036;-80
2022/12/29 01:45:01;;;;;;;3.80;2.45;;;;;;;6.11;100.00;100054.75;5068522;28;20037;-81
2022/12/29 01:47:27;;;;;;;2.83;1.85;;;;;;;6.12;100.00;100047.03;5034610;28;20028;-78
2022/12/29 01:49:55;;;;;;;2.67;1.98;;;;;;;6.09;100.00;100042.31;5072013;28;20049;-79
2022/12/29 01:52:23;;;;;;;3.22;2.10;;;;;;;6.13;100.00;100048.63;5058074;28;20025;-82
2022/12/29 01:54:53;;;;;;;4.43;2.20;;;;;;;6.14;100.00;100039.63;5068695;28;20084;-79
2022/12/29 01:57:30;;;;;;;6.15;2.42;;;;;;;6.11;100.00;100034.91;5058667;28;20025;-78
2022/12/29 02:00:12;;;;;;;4.82;2.20;;;;;;;6.07;100.00;100028.59;5061421;28;20032;-78
2022/12/29 02:02:38;;;;;;;;;;;;;;;6.05;100.00;100024.63;5052722;28;20032;-79
2022/12/29 02:05:24;;;;;;;5.60;2.58;;;;;;;6.03;100.00;100012.97;5071947;28;19917;-79
2022/12/29 02:07:50;;;;;;;9.40;2.40;;;;;;;6.01;100.00;100004.94;5071887;28;20485;-78
2022/12/29 02:10:19;;;;;;;5.15;2.78;;;;;;;6.01;100.00;100007.78;5072779;28;20046;-79
2022/12/29 02:12:45;;;;;;;5.13;2.70;;;;;;;5.98;100.00;100005.88;5062810;28;20469;-78
2022/12/29 02:15:10;;;;;;;3.78;2.55;;;;;;;5.94;100.00;99999.56;5041791;28;20028;-80
2022/12/29 02:18:20;;;;;;;4.13;2.53;;;;;;;5.88;100.00;100007.13;5042703;28;20021;-80
2022/12/29 02:20:59;;;;;;;3.53;2.20;;;;;;;5.86;100.00;100008.81;5018732;28;20053;-79
2022/12/29 02:23:58;;;;;;;6.10;2.10;;;;;;;5.80;100.00;99998.09;5038632;28;20025;-83
2022/12/29 02:26:36;;;;;;;3.10;1.77;;;;;;;5.77;100.00;99996.22;5055525;28;20086;-84
2022/12/29 02:29:23;;;;;;;3.50;2.17;;;;;;;5.73;100.00;99992.72;5055813;28;20108;-84
2022/12/29 02:31:54;;;;;;;2.95;2.17;;;;;;;5.72;100.00;99996.81;5056278;28;20064;-83
2022/12/29 02:34:39;;;;;;;4.32;2.08;;;;;;;5.70;100.00;100007.81;5057239;28;20024;-83
2022/12/29 02:37:22;;;;;;;5.82;2.13;;;;;;;5.68;100.00;100010.34;5021889;28;20021;-83
2022/12/29 02:39:52;;;;;;;26.42;3.88;;;;;;;5.65;100.00;100001.97;5052133;28;20036;-82
2022/12/29 02:42:35;;;;;;;3.00;1.85;;;;;;;5.63;100.00;100010.97;5056300;28;20029;-82
2022/12/29 02:45:13;;;;;;;5.05;2.10;;;;;;;5.60;100.00;100000.53;5056571;28;20090;-84
2022/12/29 02:47:50;;;;;;;4.15;2.30;;;;;;;5.52;100.00;99985.09;5074468;28;20164;-82
2022/12/29 02:50:15;;;;;;;4.20;2.45;;;;;;;5.50;100.00;99981.91;5056156;28;20040;-83
2022/12/29 02:52:48;;;;;;;4.22;3.03;;;;;;;5.43;100.00;99978.59;5073201;28;20464;-83
2022/12/29 02:55:13;;;;;;;3.97;2.85;;;;;;;5.42;100.00;99989.13;5055420;28;20051;-82
2022/12/29 02:57:39;;;;;;;4.47;2.13;;;;;;;5.45;100.00;99985.34;5055024;28;20024;-82
2022/12/29 03:00:13;;;;;;;4.10;2.40;;;;;;;5.43;100.00;99979.38;5073023;28;20047;-83
2022/12/29 03:03:13;;;;;;;2.90;1.77;;;;;;;5.44;100.00;99974.50;5056771;28;20024;-83
2022/12/29 03:05:41;;;;;;;5.50;2.05;;;;;;;5.41;100.00;99964.88;5072531;28;20473;-82
2022/12/29 03:08:13;;;;;;;3.45;2.05;;;;;;;5.41;100.00;99961.25;5072755;28;20035;-82
2022/12/29 03:10:54;;;;;;;3.55;1.83;;;;;;;5.46;100.00;99966.31;5072977;28;20025;-83
2022/12/29 03:16:28;;;;;;;3.55;1.90;;;;;;;5.51;100.00;99965.72;5072608;28;20123;-81
2022/12/29 03:19:20;;;;;;;2.45;1.88;;;;;;;5.54;100.00;99959.13;5055731;28;20155;-83
2022/12/29 03:24:40;;;;;;;3.65;1.83;;;;;;;5.61;100.00;99948.28;5059521;28;20499;-83
2022/12/29 03:27:07;;;;;;;3.03;1.90;;;;;;;5.65;100.00;99946.06;5075021;28;20032;-84
2022/12/29 03:29:39;;;;;;;2.47;2.08;;;;;;;5.68;100.00;99970.66;5057199;28;20032;-84
2022/12/29 03:32:07;;;;;;;3.88;1.83;;;;;;;5.73;100.00;99955.09;5056928;28;20025;-83
2022/12/29 03:34:33;;;;;;;4.70;2.40;;;;;;;5.78;100.00;99968.66;5056730;28;20020;-83
2022/12/29 03:37:01;;;;;;;3.83;2.20;;;;;;;5.86;100.00;99967.09;5074427;28;20032;-83
2022/12/29 03:39:26;;;;;;;2.60;2.13;;;;;;;5.93;100.00;99955.47;5056632;28;20020;-84
2022/12/29 03:41:58;;;;;;;4.20;2.20;;;;;;;5.93;100.00;99952.63;5059186;28;20495;-83
2022/12/29 03:44:36;;;;;;;3.13;2.47;;;;;;;5.90;100.00;99955.59;5074225;28;20041;-83
2022/12/29 03:47:02;;;;;;;2.92;2.25;;;;;;;5.81;100.00;99945.81;5074298;28;20423;-83
2022/12/29 03:49:28;;;;;;;3.13;2.22;;;;;;;5.88;100.00;99950.41;5074173;28;20362;-84
2022/12/29 03:51:53;;;;;;;3.38;2.42;;;;;;;5.90;100.00;99945.03;5056200;28;20337;-84
2022/12/29 03:54:19;;;;;;;4.07;2.38;;;;;;;5.94;100.00;99951.38;5039279;28;20048;-83
2022/12/29 03:56:44;;;;;;;4.90;2.92;;;;;;;6.03;100.00;99964.78;5073997;28;20032;-84
2022/12/29 03:59:10;;;;;;;3.33;2.30;;;;;;;6.14;100.00;99967.94;5074118;28;20029;-83
2022/12/29 04:01:35;;;;;;;3.95;2.28;;;;;;;6.19;100.00;99972.97;5074194;28;20449;-83
2022/12/29 04:04:00;;;;;;;7.20;2.75;;;;;;;6.19;100.00;99970.13;5074041;28;20060;-81
2022/12/29 04:06:26;;;;;;;3.70;2.17;;;;;;;6.24;100.00;99972.34;5073518;28;20037;-84
2022/12/29 04:08:51;;;;;;;2.95;2.30;;;;;;;6.25;100.00;99973.91;5073940;28;20052;-83
2022/12/29 04:11:17;;;;;;;8.73;2.65;;;;;;;6.28;100.00;99963.69;5074316;28;20128;-82
2022/12/29 04:13:42;;;;;;;4.07;2.53;;;;;;;6.30;100.00;99956.31;5074233;28;20040;-82
2022/12/29 04:16:08;;;;;;;3.33;2.15;;;;;;;6.32;100.00;99961.53;5073751;28;20024;-84
2022/12/29 04:18:33;;;;;;;2.95;2.20;;;;;;;6.28;100.00;99952.34;5074163;28;20434;-84
2022/12/29 04:21:03;;;;;;;3.75;2.42;;;;;;;6.22;100.00;99938.00;5073687;28;20036;-83
2022/12/29 04:23:30;;;;;;;3.63;2.13;;;;;;;6.28;100.00;99947.47;5074238;28;20108;-84
2022/12/29 04:25:55;;;;;;;3.20;2.20;;;;;;;6.31;100.00;99943.69;5074345;28;20059;-85
2022/12/29 04:28:21;;;;;;;5.63;2.20;;;;;;;6.31;100.00;99940.06;5055815;28;20020;-84
2022/12/29 04:30:46;;;;;;;2.75;2.28;;;;;;;6.34;100.00;99937.06;5076919;28;20071;-84
2022/12/29 04:33:12;;;;;;;2.45;1.77;;;;;;;6.33;100.00;99941.19;5078203;28;20369;-84
2022/12/29 04:35:37;;;;;;;6.03;2.00;;;;;;;6.31;100.00;99943.69;5077850;28;20024;-84
2022/12/29 04:38:03;;;;;;;1.90;1.65;;;;;;;6.32;100.00;99927.47;5078092;28;20052;-84
2022/12/29 04:40:29;;;;;;;5.88;2.28;;;;;;;6.27;100.00;99923.19;5059943;28;20039;-85
2022/12/29 04:42:54;;;;;;;3.60;2.15;;;;;;;6.32;100.00;99922.59;5077682;28;20029;-83
2022/12/29 04:45:20;;;;;;;4.47;2.03;;;;;;;6.27;100.00;99914.66;5059498;28;20362;-84
2022/12/29 04:47:45;;;;;;;3.15;2.28;;;;;;;6.30;100.00;99924.31;5077805;28;20035;-83
2022/12/29 04:50:11;;;;;;;4.97;1.98;;;;;;;6.27;100.00;99911.03;5077116;28;20020;-85
2022/12/29 04:52:36;;;;;;;3.47;2.20;;;;;;;6.29;100.00;99920.66;5077355;28;20103;-83
2022/12/29 04:55:02;;;;;;;3.58;1.95;;;;;;;6.28;100.00;99921.13;5077663;28;20051;-83
2022/12/29 04:57:28;;;;;;;5.03;2.47;;;;;;;6.31;100.00;99918.16;5077708;28;20020;-84
2022/12/29 04:59:53;;;;;;;3.05;2.05;;;;;;;6.28;100.00;99921.94;5077125;28;20076;-83
2022/12/29 05:02:19;;;;;;;3.70;2.08;;;;;;;6.28;100.00;99919.09;5077474;28;20063;-83
2022/12/29 05:04:44;;;;;;;4.90;2.45;;;;;;;6.34;100.00;99919.28;5076929;28;20036;-84
2022/12/29 05:07:10;;;;;;;4.22;2.15;;;;;;;6.35;100.00;99918.00;5077219;28;20024;-84
2022/12/29 05:09:35;;;;;;;5.50;2.85;;;;;;;6.32;100.00;99910.44;5077340;28;20484;-83
2022/12/29 05:12:01;;;;;;;4.80;2.83;;;;;;;6.37;100.00;99910.59;5077621;28;20028;-83
2022/12/29 05:14:26;;;;;;;5.32;2.88;;;;;;;6.34;100.00;99908.69;5078217;28;20078;-84
2022/12/29 05:16:54;;;;;;;4.68;2.70;;;;;;;6.35;100.00;99904.59;5082586;28;20028;-85
2022/12/29 05:19:20;;;;;;;3.55;2.60;;;;;;;6.40;100.00;99901.13;5074263;28;20025;-84
2022/12/29 05:21:45;;;;;;;3.83;2.10;;;;;;;6.36;100.00;99894.03;5057852;28;20025;-84
2022/12/29 05:24:10;;;;;;;3.70;2.28;;;;;;;6.45;100.00;99905.38;5086493;28;20029;-82
2022/12/29 05:26:36;;;;;;;3.25;2.40;;;;;;;6.47;100.00;99909.34;5084982;28;20024;-83
2022/12/29 05:29:01;;;;;;;3.67;2.20;;;;;;;6.46;100.00;99893.56;5080849;28;20020;-83
2022/12/29 05:31:27;;;;;;;5.90;2.55;;;;;;;6.48;100.00;99890.25;5078127;28;20051;-85
2022/12/29 05:33:53;;;;;;;3.55;2.03;;;;;;;6.42;100.00;99887.28;5059165;28;20025;-83
2022/12/29 05:36:18;;;;;;;3.42;2.28;;;;;;;6.39;100.00;99893.09;5058733;28;20484;-83
2022/12/29 05:38:44;;;;;;;4.57;2.60;;;;;;;6.34;100.00;99871.81;5058918;28;20376;-84
2022/12/29 05:41:09;;;;;;;4.10;2.47;;;;;;;6.26;100.00;99873.38;5076549;28;20462;-84
2022/12/29 05:43:35;;;;;;;3.28;2.70;;;;;;;6.22;100.00;99881.25;5058409;28;20026;-84
2022/12/29 05:46:01;;;;;;;4.72;2.25;;;;;;;6.12;100.00;99871.97;5076221;28;20108;-84
2022/12/29 05:48:26;;;;;;;3.28;2.17;;;;;;;6.07;100.00;99863.28;5076668;28;20024;-84
2022/12/29 05:50:52;;;;;;;4.47;2.33;;;;;;;6.05;100.00;99869.44;5076642;28;20017;-84
2022/12/29 05:53:18;;;;;;;6.38;2.85;;;;;;;6.04;100.00;99870.69;5075909;28;20036;-83
2022/12/29 05:55:44;;;;;;;4.90;2.70;;;;;;;6.00;100.00;99860.75;5074598;28;20020;-82
2022/12/29 05:58:09;;;;;;;5.32;2.55;;;;;;;6.03;100.00;99876.84;5056227;28;20020;-83
2022/12/29 06:00:35;;;;;;;6.05;2.30;;;;;;;6.06;100.00;99878.72;5056259;28;20120;-84
2022/12/29 06:03:00;;;;;;;7.75;3.35;;;;;;;6.03;100.00;99869.13;5038494;28;20116;-84
2022/12/29 06:05:26;;;;;;;6.20;2.75;;;;;;;6.08;100.00;99871.34;5055808;28;20032;-83
2022/12/29 06:07:51;;;;;;;3.63;2.65;;;;;;;6.16;100.00;99877.47;5056349;28;20051;-83
2022/12/29 06:10:17;;;;;;;6.90;3.00;;;;;;;6.13;100.00;99872.75;5056318;28;20029;-83
2022/12/29 06:12:42;;;;;;;4.88;3.17;;;;;;;6.11;100.00;99864.72;5038152;28;20028;-84
2022/12/29 06:15:09;;;;;;;5.20;2.88;;;;;;;6.12;100.00;99866.28;5055576;28;20029;-83
2022/12/29 06:17:37;;;;;;;4.93;3.17;;;;;;;6.11;100.00;99864.72;5055519;28;20031;-82
2022/12/29 06:20:04;;;;;;;4.20;2.90;;;;;;;6.14;100.00;99860.16;5055539;28;20458;-84
2022/12/29 06:22:38;;;;;;;8.85;3.42;;;;;;;6.17;100.00;99867.72;5055974;28;20104;-83
2022/12/29 06:25:05;;;;;;;9.50;3.47;;;;;;;6.19;100.00;99871.63;5055518;28;20025;-82
2022/12/29 06:27:32;;;;;;;6.68;3.08;;;;;;;6.23;100.00;99872.28;5039075;28;20070;-83
2022/12/29 06:29:58;;;;;;;6.47;3.25;;;;;;;6.21;100.00;99869.13;5004710;28;20554;-84
2022/12/29 06:32:24;;;;;;;10.95;3.53;;;;;;;6.19;100.00;99865.16;5037599;28;20028;-84
2022/12/29 06:34:52;;;;;;;3.38;2.78;;;;;;;6.14;100.00;99855.25;5055723;28;20017;-83
2022/12/29 06:37:18;;;;;;;6.18;2.85;;;;;;;6.19;100.00;99854.59;5055587;28;20032;-84
2022/12/29 06:39:52;;;;;;;5.03;3.25;;;;;;;6.20;100.00;99861.88;5054520;28;20039;-84
2022/12/29 06:42:18;;;;;;;6.20;3.30;;;;;;;6.20;100.00;99856.19;5037462;28;20021;-84
2022/12/29 06:44:45;;;;;;;6.65;3.75;;;;;;;6.34;100.00;99879.56;5054969;28;20024;-84
2022/12/29 06:47:12;;;;;;;6.85;3.65;;;;;;;6.34;100.00;99874.66;5004621;28;20032;-82
2022/12/29 06:49:39;;;;;;;5.70;2.95;;;;;;;6.38;100.00;99886.66;5021036;28;20028;-84
2022/12/29 06:52:05;;;;;;;5.28;3.70;;;;;;;6.40;100.00;99877.63;5054717;28;20040;-83
2022/12/29 06:54:31;;;;;;;5.90;3.10;;;;;;;6.41;100.00;99882.84;5037349;28;20430;-84
2022/12/29 06:56:58;;;;;;;6.10;3.30;;;;;;;6.42;100.00;99890.09;5053166;28;20490;-83
2022/12/29 06:59:25;;;;;;;6.90;3.90;;;;;;;6.41;100.00;99891.34;5037180;28;20039;-83
2022/12/29 07:01:53;;;;;;;7.82;3.85;;;;;;;6.37;100.00;99885.06;5037112;28;20108;-84
2022/12/29 07:04:20;;;;;;;6.72;3.50;;;;;;;6.38;100.00;99892.31;5037327;28;20017;-84
2022/12/29 07:06:46;;;;;;;7.38;3.38;;;;;;;6.40;100.00;99889.78;5054160;28;20501;-82
2022/12/29 07:09:16;;;;;;;7.20;3.97;;;;;;;6.39;100.00;99888.19;5038101;28;20021;-82
2022/12/29 07:11:41;;;;;;;6.20;3.88;;;;;;;6.40;100.00;99883.31;5055262;28;20024;-82
2022/12/29 07:14:08;;;;;;;11.75;4.25;;;;;;;6.43;100.00;99888.06;5054697;28;20025;-84
2022/12/29 07:16:34;;;;;;;5.53;3.95;;;;;;;6.46;100.00;99893.56;5054983;28;20045;-83
2022/12/29 07:19:00;;;;;;;8.20;3.90;;;;;;;6.50;100.00;99888.50;5054671;28;20033;-83
2022/12/29 07:21:25;;;;;;;6.07;3.70;;;;;;;6.56;100.00;99897.97;5054911;28;20120;-83
2022/12/29 07:23:54;;;;;;;13.13;4.25;;;;;;;6.62;100.00;99895.28;5054484;28;20056;-85
2022/12/29 07:26:20;;;;;;;7.97;4.00;;;;;;;6.64;100.00;99890.69;5036456;28;20036;-82
2022/12/29 07:28:46;;;;;;;10.95;3.90;;;;;;;6.62;100.00;99884.72;5036792;28;20086;-83
2022/12/29 07:31:18;;;;;;;9.25;4.38;;;;;;;6.62;100.00;99890.41;5054631;28;20100;-84
2022/12/29 07:33:45;;;;;;;8.27;3.85;;;;;;;6.65;100.00;99885.81;5054818;28;20051;-82
2022/12/29 07:36:12;;;;;;;7.50;3.90;;;;;;;6.70;100.00;99890.84;5021650;28;20024;-82
2022/12/29 07:38:37;;;;;;;10.55;3.80;;;;;;;6.73;100.00;99883.44;5020657;28;20028;-82
2022/12/29 07:41:05;;;;;;;7.63;4.22;;;;;;;6.76;100.00;99885.31;5054890;28;20036;-82
2022/12/29 07:43:30;;;;;;;10.38;4.50;;;;;;;6.71;100.00;99883.13;5036857;28;20025;-83
2022/12/29 07:45:55;;;;;;;7.10;4.43;;;;;;;6.73;100.00;99887.06;5054348;28;20036;-83
2022/12/29 07:48:21;;;;;;;9.45;5.22;;;;;;;6.78;100.00;99886.38;5054554;28;20032;-79
2022/12/29 07:50:47;;;;;;;4.93;3.78;;;;;;;6.81;100.00;99896.03;5038334;28;20029;-84
2022/12/29 07:53:12;;;;;;;9.18;4.18;;;;;;;6.78;100.00;99886.38;5038306;28;20082;-85
2022/12/29 07:55:39;;;;;;;9.05;4.63;;;;;;;6.80;100.00;99883.88;5058786;28;20458;-84
2022/12/29 07:58:13;;;;;;;7.07;4.35;;;;;;;6.77;100.00;99889.72;5058906;28;20078;-86
2022/12/29 08:00:47;;;;;;;6.38;3.35;;;;;;;6.81;100.00;99887.50;5037496;28;20427;-89
2022/12/29 08:03:14;;;;;;;8.10;4.43;;;;;;;6.84;100.00;99878.03;5054244;28;20025;-85
2022/12/29 08:05:40;;;;;;;10.27;3.40;;;;;;;6.93;100.00;99887.28;5053801;28;20028;-85
2022/12/29 08:08:07;;;;;;;6.80;3.65;;;;;;;6.97;100.00;99881.47;5034823;28;20036;-82
2022/12/29 08:10:33;;;;;;;6.47;3.53;;;;;;;7.02;100.00;99881.59;5036399;28;20029;-82
2022/12/29 08:12:58;;;;;;;5.65;3.65;;;;;;;7.14;100.00;99884.69;5053517;28;20051;-77
2022/12/29 08:15:25;;;;;;;7.95;3.88;;;;;;;7.20;100.00;99897.78;5052988;28;20120;-78
2022/12/29 08:17:51;;;;;;;8.43;4.45;;;;;;;7.31;100.00;99888.75;5052723;28;20039;-76
2022/12/29 08:20:20;;;;;;;7.60;4.43;;;;;;;7.45;100.00;99899.41;5036275;28;20028;-80
2022/12/29 08:22:46;;;;;;;8.90;4.05;;;;;;;7.53;100.00;99903.47;5054036;28;20025;-82
2022/12/29 08:25:12;;;;;;;9.35;4.05;;;;;;;7.59;100.00;99909.28;5053716;28;20032;-81
2022/12/29 08:27:40;;;;;;;9.25;3.83;;;;;;;7.65;100.00;99904.50;5053935;28;20025;-82
2022/12/29 08:30:07;;;;;;;9.27;3.60;;;;;;;7.76;100.00;99911.25;5035685;28;20021;-80
2022/12/29 08:32:34;;;;;;;5.70;3.45;;;;;;;7.86;100.00;99920.50;5035835;28;20459;-78
2022/12/29 08:35:00;;;;;;;6.88;4.30;;;;;;;7.96;100.00;99911.41;5052060;28;20452;-78
2022/12/29 08:37:26;;;;;;;10.30;4.30;;;;;;;8.05;100.00;99915.47;5053665;28;20031;-80
2022/12/29 08:39:53;;;;;;;10.10;4.07;;;;;;;8.15;100.00;99908.44;5035179;28;20079;-78
2022/12/29 08:42:20;;;;;;;8.02;4.10;;;;;;;8.31;100.00;99908.81;5035773;28;20028;-78
2022/12/29 08:44:47;;;;;;;7.53;4.30;;;;;;;8.35;100.00;99906.59;5053072;28;20471;-79
2022/12/29 08:47:14;;;;;;;9.15;4.68;;;;;;;8.37;100.00;99918.25;5053191;28;20037;-78
2022/12/29 08:49:41;;;;;;;10.43;4.63;;;;;;;8.29;98.56;99913.44;5052956;28;20021;-79
2022/12/29 08:52:08;;;;;;;11.45;4.85;;;;;;;8.22;98.57;99917.41;5035601;28;20025;-79
2022/12/29 08:54:48;;;;;;;7.50;4.88;;;;;;;8.19;99.16;99909.88;5035518;28;20057;-78
2022/12/29 08:57:14;;;;;;;8.23;4.57;;;;;;;8.34;100.00;99927.78;5035649;28;20068;-86
2022/12/29 08:59:40;;;;;;;7.10;4.47;;;;;;;8.40;100.00;99925.03;5052359;28;20037;-79
2022/12/29 09:02:10;;;;;;;10.70;4.95;;;;;;;8.41;100.00;99915.22;5053204;28;20032;-78
2022/12/29 09:04:36;;;;;;;8.05;4.55;;;;;;;8.33;100.00;99916.88;5035252;28;20035;-79
2022/12/29 09:07:05;;;;;;;9.43;5.38;;;;;;;8.32;100.00;99916.06;5035326;28;20484;-81
2022/12/29 09:09:30;;;;;;;7.60;4.30;;;;;;;8.36;100.00;99925.22;5037110;28;20025;-78
2022/12/29 09:11:57;;;;;;;8.57;4.07;;;;;;;8.44;100.00;99922.00;5054012;28;20531;-77
2022/12/29 09:14:22;;;;;;;7.68;4.07;;;;;;;8.47;99.78;99932.41;5031207;28;20038;-78
2022/12/29 09:19:44;;;;;;;9.00;4.30;;;;;;;8.46;99.04;99913.78;5064119;28;20185;-79
2022/12/29 09:22:10;;;;;;;7.93;4.07;;;;;;;8.50;98.99;99912.31;5076270;28;20031;-79
2022/12/29 09:24:36;;;;;;;6.32;4.07;;;;;;;8.45;98.82;99910.13;5075868;28;20036;-80
2022/12/29 09:27:07;;;;;;;10.05;4.10;;;;;;;8.47;99.60;99921.00;5054839;28;20027;-78
2022/12/29 09:29:33;;;;;;;10.18;4.60;;;;;;;8.50;100.00;99922.91;5054318;28;20043;-81
2022/12/29 09:31:58;;;;;;;8.20;4.22;;;;;;;8.45;99.34;99906.50;5057186;28;20446;-79
2022/12/29 09:34:43;;;;;;;11.10;4.50;;;;;;;8.57;99.63;99929.00;5056808;28;20032;-83
2022/12/29 09:37:10;;;;;;;9.48;4.28;;;;;;;8.64;99.90;99931.47;5070373;28;20029;-77
2022/12/29 09:39:35;;;;;;;8.85;4.20;;;;;;;8.69;100.00;99912.91;5082617;28;20028;-77
2022/12/29 09:42:26;;;;;;;11.55;4.38;;;;;;;8.83;100.00;99912.91;5060955;28;20033;-78
2022/12/29 09:45:03;;;;;;;6.75;4.47;;;;;;;9.06;99.80;99916.16;5066334;28;20029;-81
2022/12/29 09:47:29;;;;;;;9.55;4.60;;;;;;;9.15;99.15;99922.53;5055455;28;20036;-80
2022/12/29 09:50:00;;;;;;;12.90;5.13;;;;;;;9.21;99.66;99911.22;5037507;28;20025;-81
2022/12/29 09:52:31;;;;;;;8.10;4.40;;;;;;;9.25;99.63;99911.81;5036610;28;20032;-78
2022/12/29 09:54:57;;;;;;;7.00;3.75;;;;;;;9.32;99.41;99902.84;5036073;28;20045;-77
2022/12/29 09:57:41;;;;;;;8.13;4.00;;;;;;;9.30;99.60;99901.81;5054206;28;20094;-75
2022/12/29 10:00:18;;;;;;;9.80;4.22;;;;;;;9.29;100.00;99900.22;5053882;28;20028;-77
2022/12/29 10:02:48;;;;;;;6.78;4.05;;;;;;;9.31;100.00;99900.50;5035779;28;20028;-74
2022/12/29 10:05:20;;;;;;;9.23;4.18;;;;;;;9.26;100.00;99876.31;5036101;28;20114;-84
2022/12/29 10:07:55;;;;;;;6.95;4.07;;;;;;;9.37;99.09;99879.34;5036961;28;20458;-82
2022/12/29 10:10:40;;;;;;;5.90;3.75;;;;;;;9.45;98.84;99885.41;5035887;28;20066;-80
2022/12/29 10:13:21;;;;;;;7.25;3.38;;;;;;;9.50;98.00;99885.50;5035965;28;20489;-77
2022/12/29 10:16:14;;;;;;;9.47;3.90;;;;;;;9.58;97.27;99874.47;5038122;28;20025;-82
2022/12/29 10:18:55;;;;;;;10.00;3.10;;;;;;;9.69;95.65;99866.84;5055894;28;20132;-82
2022/12/29 10:21:44;;;;;;;5.43;3.28;;;;;;;9.82;94.12;99868.59;5056020;28;20037;-78
2022/12/29 10:24:11;;;;;;;8.13;3.33;;;;;;;9.83;95.07;99859.56;5055640;28;20048;-79
2022/12/29 10:26:42;;;;;;;6.47;3.45;;;;;;;9.90;95.40;99864.03;5054708;28;20025;-77
2022/12/29 10:29:16;;;;;;;8.77;3.75;;;;;;;9.98;95.52;99860.28;5036761;28;20036;-78
2022/12/29 10:32:23;;;;;;;7.47;3.28;;;;;;;10.19;94.81;99854.53;5054968;28;20460;-76
2022/12/29 10:34:52;;;;;;;3.33;2.63;;;;;;;10.28;93.45;99866.63;5020694;28;20116;-74
2022/12/29 10:37:17;;;;;;;4.88;2.67;;;;;;;10.41;92.69;99872.72;5055184;28;20028;-73
2022/12/29 10:39:49;;;;;;;5.20;2.67;;;;;;;10.43;90.99;99872.22;5054986;28;20462;-77
2022/12/29 10:42:21;;;;;;;5.53;2.72;;;;;;;10.47;91.38;99858.50;5037018;28;20044;-80
2022/12/29 10:44:46;;;;;;;7.28;2.95;;;;;;;10.53;91.45;99859.34;5055572;28;20037;-81
2022/12/29 10:47:16;;;;;;;6.13;3.00;;;;;;;10.63;89.64;99857.88;5055480;28;20378;-81
2022/12/29 10:49:42;;;;;;;12.70;2.97;;;;;;;10.65;89.14;99863.88;5055008;28;20466;-80
2022/12/29 10:52:08;;;;;;;8.43;3.03;;;;;;;10.60;88.69;99875.25;5057095;28;20032;-81
2022/12/29 10:55:01;;;;;;;4.00;2.88;;;;;;;10.58;87.84;99870.03;5040255;28;20444;-82
2022/12/29 10:57:32;;;;;;;5.05;2.80;;;;;;;10.51;87.06;99865.56;5046532;28;20039;-81
2022/12/29 10:59:58;;;;;;;6.10;3.25;;;;;;;10.55;87.16;99866.13;5060040;28;20032;-82
2022/12/29 11:02:40;;;;;;;6.63;3.08;;;;;;;10.55;85.12;99868.19;5059856;28;20054;-84
2022/12/29 11:05:38;;;;;;;4.28;2.53;;;;;;;10.54;86.09;99869.47;5079355;28;20033;-81
2022/12/29 11:08:10;;;;;;;4.88;2.63;;;;;;;10.58;86.31;99861.44;5062688;28;20028;-83
2022/12/29 11:10:42;;;;;;;8.38;3.10;;;;;;;10.65;85.40;99863.09;5025489;28;20135;-84
2022/12/29 11:13:16;;;;;;;8.38;3.38;;;;;;;10.69;84.08;99855.84;5075769;28;20029;-83
2022/12/29 11:15:44;;;;;;;9.68;3.25;;;;;;;10.77;84.28;99856.22;5075331;28;20362;-81
2022/12/29 11:18:30;;;;;;;8.90;2.80;;;;;;;10.75;82.75;99847.34;5075529;28;20469;-86
2022/12/29 11:21:01;;;;;;;8.52;3.38;;;;;;;10.79;83.82;99839.31;5075399;28;20032;-82
2022/12/29 11:23:35;;;;;;;7.75;2.88;;;;;;;10.83;81.96;99840.66;5041843;28;20043;-85
2022/12/29 11:26:26;;;;;;;7.60;3.08;;;;;;;10.83;81.96;99849.22;5075117;28;20488;-83
2022/12/29 11:29:26;;;;;;;11.80;3.07;;;;;;;10.79;82.75;99842.97;5057102;28;20028;-83
2022/12/29 11:31:55;;;;;;;7.07;3.47;;;;;;;10.77;83.56;99839.06;5074919;28;20028;-82
2022/12/29 11:34:31;;;;;;;5.45;2.90;;;;;;;10.82;84.18;99838.31;5040557;28;20036;-81
2022/12/29 11:37:17;;;;;;;9.23;2.88;;;;;;;10.82;83.56;99839.13;5044728;28;20062;-79
2022/12/29 11:40:16;;;;;;;6.65;2.97;;;;;;;10.90;84.46;99828.00;5037754;28;20067;-83
2022/12/29 11:42:50;;;;;;;6.85;2.90;;;;;;;10.93;84.05;99829.81;5054532;28;20025;-85
2022/12/29 11:45:18;;;;;;;5.25;2.80;;;;;;;10.89;84.14;99826.41;5036351;28;20055;-85
2022/12/29 11:47:48;;;;;;;6.78;3.70;;;;;;;10.81;84.38;99823.25;5036951;28;20143;-84
2022/12/29 11:50:24;;;;;;;11.15;3.75;;;;;;;10.71;86.16;99819.00;5037220;28;20064;-82
2022/12/29 11:53:11;;;;;;;17.23;3.63;;;;;;;10.63;86.69;99817.88;5036851;28;20385;-83
2022/12/29 11:55:39;;;;;;;10.60;3.65;;;;;;;10.58;87.92;99817.84;5055044;28;20075;-81
2022/12/29 11:58:06;;;;;;;14.02;4.13;;;;;;;10.47;87.64;99809.94;5036382;28;20021;-84
2022/12/29 12:00:36;;;;;;;9.63;3.20;;;;;;;10.47;88.89;99810.72;5036510;28;20041;-82
2022/12/29 12:03:18;;;;;;;9.13;3.08;;;;;;;10.46;90.17;99814.88;5036458;28;20036;-79
2022/12/29 12:05:53;;;;;;;8.27;3.80;;;;;;;10.43;91.72;99809.38;5036504;28;20565;-80
2022/12/29 12:08:45;;;;;;;7.97;3.60;;;;;;;10.40;92.52;99799.75;5036640;28;20025;-84
2022/12/29 12:11:18;;;;;;;;;;;;;;;10.31;93.44;99805.63;5036619;28;20116;-81
2022/12/29 12:14:23;;;;;;;6.75;3.22;;;;;;;10.28;93.93;99791.56;5019657;28;19912;-86
2022/12/29 12:17:14;;;;;;;8.50;4.03;;;;;;;10.21;95.31;99780.59;5019546;28;20514;-78
2022/12/29 12:20:10;;;;;;;7.30;4.15;;;;;;;10.20;95.68;99779.00;5036514;28;20024;-80
2022/12/29 12:22:42;;;;;;;8.10;3.60;;;;;;;10.11;97.07;99783.59;5055189;28;20085;-78